Time;durP1;ratioP1;P1;durP2;ratioP2;P2;SDS_P1;SDS_P2;PMS_P1;PMS_P2;Temp;Humidity;BMP_temperature;BMP_pressure;BME280_temperature;BME280_humidity;BME280_pressure;Samples;Min_cycle;Max_cycle;Signal;HPM_P1;HPM_P2
2021/06/08 00:02:11;;;;;;;49.95;29.85;;;17.90;99.90;;;;;;5049728;28;20671;-50
2021/06/08 00:04:37;;;;;;;51.97;30.33;;;18.10;99.90;;;;;;5050451;28;20385;-49
2021/06/08 00:07:03;;;;;;;53.95;30.45;;;18.10;99.90;;;;;;5049815;28;20385;-50
2021/06/08 00:09:28;;;;;;;49.28;29.77;;;18.10;99.90;;;;;;5057067;28;20438;-49
2021/06/08 00:11:54;;;;;;;46.97;29.10;;;18.10;99.90;;;;;;5054592;28;20846;-49
2021/06/08 00:14:20;;;;;;;49.83;30.05;;;18.10;99.90;;;;;;5049555;28;20381;-49
2021/06/08 00:16:45;;;;;;;51.53;29.80;;;18.00;99.90;;;;;;5050412;28;20443;-49
2021/06/08 00:19:11;;;;;;;52.10;31.23;;;17.90;99.90;;;;;;5049076;28;20393;-50
2021/06/08 00:21:37;;;;;;;53.35;31.20;;;17.90;99.90;;;;;;5050093;28;20446;-49
2021/06/08 00:24:03;;;;;;;57.23;33.17;;;17.80;99.90;;;;;;5049611;28;20417;-50
2021/06/08 00:26:29;;;;;;;51.38;30.73;;;17.80;99.90;;;;;;5050178;28;20493;-49
2021/06/08 00:28:55;;;;;;;54.17;30.30;;;17.80;99.90;;;;;;5048232;28;20476;-52
2021/06/08 00:31:20;;;;;;;58.63;30.93;;;17.80;99.90;;;;;;5048102;28;20436;-49
2021/06/08 00:33:47;;;;;;;54.97;32.40;;;17.80;99.90;;;;;;5049995;28;20835;-50
2021/06/08 00:36:14;;;;;;;55.05;32.05;;;17.80;99.90;;;;;;5048865;28;20480;-49
2021/06/08 00:38:40;;;;;;;55.40;31.63;;;17.80;99.90;;;;;;5050316;28;20381;-50
2021/06/08 00:41:06;;;;;;;55.97;32.28;;;17.80;99.90;;;;;;5049730;28;20435;-51
2021/06/08 00:43:31;;;;;;;55.22;31.73;;;17.70;99.90;;;;;;5048961;28;20417;-51
2021/06/08 00:45:57;;;;;;;51.45;30.73;;;17.80;99.90;;;;;;5049055;28;20393;-56
2021/06/08 00:48:23;;;;;;;49.80;30.20;;;17.80;99.90;;;;;;5049325;28;20378;-50
2021/06/08 00:50:49;;;;;;;47.45;29.10;;;17.90;99.90;;;;;;5081807;28;20385;-50
2021/06/08 00:53:15;;;;;;;51.20;30.08;;;18.00;99.90;;;;;;5048750;28;20401;-50
2021/06/08 00:55:41;;;;;;;48.08;30.48;;;18.20;99.90;;;;;;5049237;28;20389;-50
2021/06/08 00:58:07;;;;;;;49.88;29.98;;;18.30;99.90;;;;;;5048963;28;20790;-50
2021/06/08 01:00:33;;;;;;;46.83;29.40;;;18.30;99.90;;;;;;5049424;28;20855;-50
2021/06/08 01:02:58;;;;;;;49.55;29.70;;;18.30;99.90;;;;;;5049045;28;20966;-56
2021/06/08 01:05:25;;;;;;;57.97;29.80;;;18.30;99.90;;;;;;5049430;28;20736;-50
2021/06/08 01:07:52;;;;;;;54.17;30.70;;;18.20;99.90;;;;;;5049626;28;20467;-49
2021/06/08 01:10:17;;;;;;;55.15;30.75;;;18.10;99.90;;;;;;5048776;28;20808;-49
2021/06/08 01:12:43;;;;;;;50.37;31.43;;;18.10;99.90;;;;;;5048429;28;20523;-49
2021/06/08 01:15:09;;;;;;;54.17;31.03;;;18.10;99.90;;;;;;5048815;28;20762;-49
2021/06/08 01:17:35;;;;;;;52.30;31.43;;;18.10;99.90;;;;;;5049513;28;20747;-50
2021/06/08 01:20:03;;;;;;;52.97;30.35;;;18.10;99.90;;;;;;5048325;28;20879;-50
2021/06/08 01:22:29;;;;;;;56.38;32.83;;;18.00;99.90;;;;;;5049436;28;20397;-50
2021/06/08 01:24:55;;;;;;;55.40;31.92;;;17.90;99.90;;;;;;5049478;28;20377;-49
2021/06/08 01:27:22;;;;;;;55.25;32.67;;;17.80;99.90;;;;;;5047568;28;20393;-49
2021/06/08 01:29:53;;;;;;;60.30;32.97;;;17.80;99.90;;;;;;5049204;28;20894;-49
2021/06/08 01:32:28;;;;;;;57.15;33.38;;;17.80;99.90;;;;;;5048631;28;20767;-50
2021/06/08 01:34:55;;;;;;;60.40;33.60;;;17.80;99.90;;;;;;5049034;28;20384;-49
2021/06/08 01:37:21;;;;;;;57.75;32.88;;;17.80;99.90;;;;;;5048305;28;20408;-50
2021/06/08 01:39:47;;;;;;;56.67;32.33;;;17.70;99.90;;;;;;5051348;28;20389;-49
2021/06/08 01:42:14;;;;;;;55.63;31.42;;;17.70;99.90;;;;;;5052396;28;20497;-51
2021/06/08 01:44:42;;;;;;;59.08;33.00;;;17.60;99.90;;;;;;5053056;28;20392;-55
2021/06/08 01:47:08;;;;;;;58.50;32.75;;;17.60;99.90;;;;;;5052564;28;20464;-49
2021/06/08 01:49:34;;;;;;;63.22;34.00;;;17.50;99.90;;;;;;5053157;28;20382;-49
2021/06/08 01:52:05;;;;;;;60.95;33.05;;;17.50;99.90;;;;;;5052902;28;20435;-55
2021/06/08 01:54:39;;;;;;;62.40;34.30;;;17.40;99.90;;;;;;5053180;28;20484;-49
2021/06/08 01:57:31;;;;;;;66.90;35.60;;;17.40;99.90;;;;;;5052354;28;20424;-49
2021/06/08 02:00:26;;;;;;;70.80;36.95;;;17.30;99.90;;;;;;5047328;28;20489;-54
2021/06/08 02:03:01;;;;;;;65.43;36.53;;;17.20;99.90;;;;;;5053052;28;20425;-50
2021/06/08 02:05:46;;;;;;;65.38;35.47;;;17.20;99.90;;;;;;5052997;28;20808;-50
2021/06/08 02:08:29;;;;;;;66.95;35.25;;;17.20;99.90;;;;;;5052187;28;20389;-50
2021/06/08 02:11:11;;;;;;;64.40;35.83;;;17.20;99.90;;;;;;5052929;28;20531;-53
2021/06/08 02:13:49;;;;;;;64.95;33.88;;;17.30;99.90;;;;;;5052783;28;20464;-51
2021/06/08 02:16:22;;;;;;;58.45;33.63;;;17.30;99.90;;;;;;5051843;28;20378;-50
2021/06/08 02:18:49;;;;;;;62.00;33.67;;;17.40;99.90;;;;;;5052503;28;20382;-50
2021/06/08 02:21:19;;;;;;;61.25;34.28;;;17.30;99.90;;;;;;5052109;28;20798;-50
2021/06/08 02:23:48;;;;;;;59.92;33.80;;;17.30;99.90;;;;;;5052454;28;20875;-50
2021/06/08 02:26:15;;;;;;;60.63;35.40;;;17.40;99.90;;;;;;5051272;28;20540;-49
2021/06/08 02:28:41;;;;;;;67.28;34.55;;;17.50;99.90;;;;;;5052402;28;20423;-52
2021/06/08 02:31:09;;;;;;;74.80;35.67;;;17.40;99.90;;;;;;5051644;28;20401;-50
2021/06/08 02:33:37;;;;;;;62.80;35.38;;;17.30;99.90;;;;;;5052174;28;20402;-50
2021/06/08 02:36:04;;;;;;;64.53;34.28;;;17.30;99.90;;;;;;5051481;28;20476;-50
2021/06/08 02:38:33;;;;;;;62.40;33.60;;;17.30;99.90;;;;;;5052152;28;20377;-51
2021/06/08 02:40:59;;;;;;;58.90;33.53;;;17.30;99.90;;;;;;5052054;28;20481;-55
2021/06/08 02:43:27;;;;;;;66.75;35.33;;;16.30;99.90;;;;;;5051796;28;20441;-50
2021/06/08 02:45:53;;;;;;;71.13;35.90;;;17.30;99.90;;;;;;5052040;28;20922;-52
2021/06/08 02:48:20;;;;;;;66.78;36.08;;;17.30;99.90;;;;;;5051382;28;20485;-50
2021/06/08 02:50:48;;;;;;;65.90;34.43;;;17.30;99.90;;;;;;5051336;28;20417;-50
2021/06/08 02:53:17;;;;;;;66.55;35.85;;;17.40;99.90;;;;;;5051264;28;20415;-50
2021/06/08 02:55:48;;;;;;;70.63;35.47;;;17.30;99.90;;;;;;5052600;28;20387;-49
2021/06/08 02:58:14;;;;;;;69.72;36.47;;;15.60;99.90;;;;;;5050912;28;20378;-50
2021/06/08 03:00:41;;;;;;;73.70;35.72;;;17.20;99.90;;;;;;5051316;28;20405;-50
2021/06/08 03:03:08;;;;;;;73.65;37.03;;;17.20;99.90;;;;;;5051101;28;20417;-50
2021/06/08 03:05:41;;;;;;;72.40;36.13;;;17.20;99.90;;;;;;5051614;28;20390;-50
2021/06/08 03:08:23;;;;;;;75.75;38.15;;;17.20;99.90;;;;;;5050976;28;20421;-50
2021/06/08 03:10:51;;;;;;;80.07;38.17;;;17.20;99.90;;;;;;5051457;28;20564;-50
2021/06/08 03:13:18;;;;;;;80.43;38.85;;;17.20;99.90;;;;;;5051005;28;20385;-50
2021/06/08 03:15:51;;;;;;;77.25;37.83;;;17.20;99.90;;;;;;5051252;28;20401;-50
2021/06/08 03:18:22;;;;;;;79.00;39.08;;;17.10;99.90;;;;;;5050449;28;20373;-50
2021/06/08 03:20:55;;;;;;;91.75;39.42;;;17.20;99.90;;;;;;5051293;28;20390;-50
2021/06/08 03:23:25;;;;;;;80.22;38.90;;;17.20;99.90;;;;;;5049458;28;20717;-53
2021/06/08 03:25:52;;;;;;;74.97;37.90;;;17.20;99.90;;;;;;5051251;28;20567;-50
2021/06/08 03:28:21;;;;;;;75.78;37.45;;;17.20;99.90;;;;;;5049275;28;20408;-50
2021/06/08 03:30:49;;;;;;;80.30;38.25;;;17.30;99.90;;;;;;5051232;28;20413;-50
2021/06/08 03:33:16;;;;;;;81.90;39.60;;;17.20;99.90;;;;;;5050670;28;20401;-50
2021/06/08 03:35:42;;;;;;;80.40;37.97;;;17.20;99.90;;;;;;5051081;28;20389;-50
2021/06/08 03:38:09;;;;;;;83.72;37.60;;;17.20;99.90;;;;;;5050130;28;20877;-50
2021/06/08 03:40:36;;;;;;;76.33;38.30;;;17.20;99.90;;;;;;5051231;28;20468;-50
2021/06/08 03:43:03;;;;;;;78.90;38.70;;;17.20;99.90;;;;;;5050455;28;20413;-56
2021/06/08 03:45:28;;;;;;;82.15;37.92;;;17.20;99.90;;;;;;5049795;28;20397;-49
2021/06/08 03:47:55;;;;;;;80.43;38.00;;;17.30;99.90;;;;;;5051098;28;20382;-50
2021/06/08 03:50:21;;;;;;;77.10;38.38;;;17.30;99.90;;;;;;5050111;28;20370;-52
2021/06/08 03:52:50;;;;;;;80.93;38.78;;;17.30;99.90;;;;;;5050852;28;20416;-50
2021/06/08 03:55:20;;;;;;;80.47;37.95;;;17.40;99.90;;;;;;5050300;28;20381;-50
2021/06/08 03:57:51;;;;;;;84.10;38.47;;;17.30;99.90;;;;;;5050107;28;20373;-51
2021/06/08 04:00:18;;;;;;;80.57;37.30;;;17.30;99.90;;;;;;5049960;28;20396;-50
2021/06/08 04:02:44;;;;;;;81.70;36.70;;;17.30;99.90;;;;;;5049072;28;20494;-50
2021/06/08 04:05:11;;;;;;;75.90;39.10;;;17.30;99.90;;;;;;5049944;28;20373;-50
2021/06/08 04:07:42;;;;;;;75.47;36.10;;;17.40;99.90;;;;;;5057340;28;20399;-50
2021/06/08 04:10:09;;;;;;;64.43;35.10;;;17.50;99.90;;;;;;5070208;28;20412;-50
2021/06/08 04:12:36;;;;;;;60.97;33.00;;;17.60;99.90;;;;;;5070114;28;20380;-51
2021/06/08 04:15:06;;;;;;;63.97;34.08;;;17.60;99.90;;;;;;5069874;28;20380;-56
2021/06/08 04:17:32;;;;;;;59.00;33.55;;;17.70;99.90;;;;;;5070307;28;20849;-50
2021/06/08 04:20:00;;;;;;;60.97;34.17;;;17.70;99.90;;;;;;5070075;28;20888;-50
2021/06/08 04:22:29;;;;;;;66.65;34.67;;;17.80;99.90;;;;;;5069476;28;20407;-51
2021/06/08 04:24:56;;;;;;;61.35;33.88;;;17.70;99.90;;;;;;5070142;28;20383;-51
2021/06/08 04:27:26;;;;;;;59.35;34.15;;;17.80;99.90;;;;;;5069349;28;20459;-54
2021/06/08 04:29:53;;;;;;;55.67;32.50;;;17.90;99.90;;;;;;5069271;28;20387;-51
2021/06/08 04:32:19;;;;;;;55.85;31.83;;;18.00;99.90;;;;;;5069373;28;20400;-51
2021/06/08 04:34:47;;;;;;;55.00;32.42;;;18.00;99.90;;;;;;5069783;28;20388;-50
2021/06/08 04:37:13;;;;;;;48.65;30.83;;;18.10;99.90;;;;;;5069159;28;20394;-50
2021/06/08 04:39:39;;;;;;;48.73;30.57;;;18.10;99.90;;;;;;5069363;28;20854;-50
2021/06/08 04:42:06;;;;;;;49.72;30.30;;;18.20;99.90;;;;;;5068881;28;20982;-50
2021/06/08 04:44:33;;;;;;;45.83;29.23;;;18.30;99.90;;;;;;5069392;28;20415;-50
2021/06/08 04:46:59;;;;;;;44.55;28.52;;;18.40;99.90;;;;;;5069085;28;20376;-50
2021/06/08 04:49:24;;;;;;;43.53;27.98;;;18.40;99.90;;;;;;5068374;28;20384;-50
2021/06/08 04:51:50;;;;;;;40.77;28.50;;;18.70;99.90;;;;;;5062342;28;20943;-50
2021/06/08 04:54:22;;;;;;;41.00;27.50;;;18.70;99.90;;;;;;5069328;28;20391;-50
2021/06/08 04:56:48;;;;;;;41.55;27.63;;;18.70;99.90;;;;;;5075527;28;20397;-51
2021/06/08 04:59:18;;;;;;;44.80;28.13;;;18.80;99.90;;;;;;5077994;28;20874;-50
2021/06/08 05:01:45;;;;;;;36.88;25.90;;;18.90;99.90;;;;;;5080463;28;20469;-50
2021/06/08 05:04:14;;;;;;;38.10;26.42;;;18.90;99.90;;;;;;5077336;28;20429;-50
2021/06/08 05:06:51;;;;;;;36.20;24.40;;;19.00;99.90;;;;;;5089681;28;20388;-50
2021/06/08 05:09:22;;;;;;;37.88;25.13;;;19.10;99.90;;;;;;5088985;28;20469;-50
2021/06/08 05:11:56;;;;;;;41.53;26.88;;;19.10;99.90;;;;;;5089890;28;20382;-51
2021/06/08 05:14:24;;;;;;;38.47;26.55;;;19.10;99.90;;;;;;5088421;28;20722;-50
2021/06/08 05:16:51;;;;;;;34.30;23.60;;;19.10;99.90;;;;;;5089484;28;20848;-50
2021/06/08 05:19:20;;;;;;;36.80;24.60;;;19.20;99.90;;;;;;5089099;28;20464;-50
2021/06/08 05:21:46;;;;;;;38.90;26.85;;;19.20;99.90;;;;;;5089818;28;20418;-50
2021/06/08 05:24:13;;;;;;;36.90;25.40;;;19.20;99.90;;;;;;5088742;28;20502;-50
2021/06/08 05:26:42;;;;;;;36.60;25.08;;;19.30;99.90;;;;;;5089835;28;20407;-51
2021/06/08 05:29:08;;;;;;;40.83;28.52;;;19.20;99.90;;;;;;5088707;28;20868;-49
2021/06/08 05:31:34;;;;;;;38.77;26.97;;;19.20;99.90;;;;;;5089129;28;20386;-49
2021/06/08 05:34:01;;;;;;;39.30;25.40;;;19.10;99.90;;;;;;5089459;28;20398;-53
2021/06/08 05:36:35;;;;;;;38.55;25.42;;;19.00;99.90;;;;;;5087429;28;20370;-49
2021/06/08 05:39:02;;;;;;;36.38;25.65;;;18.90;99.90;;;;;;5069181;28;20479;-54
2021/06/08 05:41:28;;;;;;;37.17;26.02;;;19.00;99.90;;;;;;5068513;28;20387;-50
2021/06/08 05:43:54;;;;;;;35.00;25.00;;;18.30;99.90;;;;;;5069435;28;20404;-49
2021/06/08 05:46:20;;;;;;;41.38;26.00;;;18.90;99.90;;;;;;5068284;28;20470;-49
2021/06/08 05:48:46;;;;;;;41.22;26.60;;;18.80;99.90;;;;;;5061054;28;20384;-52
2021/06/08 05:51:12;;;;;;;39.78;25.55;;;18.90;99.90;;;;;;5051202;28;20412;-53
2021/06/08 05:53:39;;;;;;;38.30;25.25;;;19.00;99.90;;;;;;5063650;28;20408;-50
2021/06/08 05:56:07;;;;;;;42.30;26.90;;;19.00;99.90;;;;;;5060491;28;20416;-50
2021/06/08 05:58:33;;;;;;;38.33;27.15;;;18.90;99.90;;;;;;5068678;28;20388;-49
2021/06/08 06:01:00;;;;;;;36.80;25.38;;;18.80;99.90;;;;;;5062616;28;20404;-50
2021/06/08 06:03:28;;;;;;;35.83;24.73;;;18.90;99.90;;;;;;5063244;28;20409;-50
2021/06/08 06:05:57;;;;;;;34.30;25.57;;;18.80;99.90;;;;;;5048961;28;20855;-49
2021/06/08 06:08:26;;;;;;;35.45;25.20;;;19.00;99.90;;;;;;5047928;28;20439;-50
2021/06/08 06:10:52;;;;;;;37.83;25.50;;;19.10;99.90;;;;;;5067221;28;20416;-50
2021/06/08 06:13:23;;;;;;;37.03;25.33;;;19.10;99.90;;;;;;5068199;28;20383;-49
2021/06/08 06:15:49;;;;;;;39.60;26.10;;;19.10;99.90;;;;;;5068954;28;20433;-49
2021/06/08 06:18:18;;;;;;;36.10;24.70;;;19.10;99.90;;;;;;5067948;28;20384;-49
2021/06/08 06:20:45;;;;;;;35.08;23.38;;;19.10;99.90;;;;;;5068711;28;20376;-49
2021/06/08 06:23:14;;;;;;;34.28;23.25;;;19.20;99.90;;;;;;5067343;28;20423;-50
2021/06/08 06:25:40;;;;;;;32.40;22.88;;;19.30;99.90;;;;;;5067942;28;20824;-49
2021/06/08 06:28:10;;;;;;;35.45;24.20;;;19.60;99.90;;;;;;5071347;28;20471;-54
2021/06/08 06:30:36;;;;;;;36.13;24.52;;;19.60;99.90;;;;;;5072119;28;20415;-50
2021/06/08 06:33:02;;;;;;;34.83;25.20;;;19.40;99.90;;;;;;5071517;28;20465;-54
2021/06/08 06:35:28;;;;;;;34.15;23.73;;;19.60;99.90;;;;;;5072408;28;20857;-49
2021/06/08 06:37:54;;;;;;;33.67;23.92;;;19.70;99.90;;;;;;5071999;28;20391;-49
2021/06/08 06:40:27;;;;;;;36.63;24.20;;;19.70;99.90;;;;;;5071188;28;20372;-50
2021/06/08 06:42:59;;;;;;;30.65;23.52;;;19.60;99.90;;;;;;5071565;28;20423;-50
2021/06/08 06:45:26;;;;;;;36.40;23.50;;;19.80;99.90;;;;;;5071306;28;20379;-49
2021/06/08 06:47:54;;;;;;;32.92;23.58;;;19.90;99.90;;;;;;5071970;28;20387;-49
2021/06/08 06:50:24;;;;;;;33.90;22.80;;;20.00;99.90;;;;;;5070734;28;20897;-49
2021/06/08 06:52:56;;;;;;;32.25;22.45;;;20.10;99.90;;;;;;5070128;28;20792;-49
2021/06/08 06:55:23;;;;;;;29.23;21.85;;;20.00;99.90;;;;;;5071339;28;20419;-50
2021/06/08 06:57:49;;;;;;;34.50;23.15;;;19.90;99.90;;;;;;5071761;28;20480;-50
2021/06/08 07:00:16;;;;;;;33.25;23.65;;;19.80;99.90;;;;;;5070949;28;20396;-49
2021/06/08 07:02:43;;;;;;;30.90;23.02;;;19.80;99.90;;;;;;5070984;28;20845;-51
2021/06/08 07:05:13;;;;;;;34.17;23.23;;;19.60;99.90;;;;;;5070953;28;20444;-50
2021/06/08 07:07:42;;;;;;;29.23;21.35;;;19.70;99.90;;;;;;5071637;28;20411;-51
2021/06/08 07:10:09;;;;;;;31.42;22.70;;;19.70;99.90;;;;;;5068670;28;20730;-54
2021/06/08 07:12:38;;;;;;;29.52;21.60;;;19.80;99.90;;;;;;5056615;28;20866;-49
2021/06/08 07:15:05;;;;;;;31.63;22.77;;;19.70;99.90;;;;;;5055312;28;20868;-54
2021/06/08 07:17:31;;;;;;;31.63;23.30;;;19.90;99.90;;;;;;5051101;28;20390;-49
2021/06/08 07:19:57;;;;;;;30.27;22.35;;;20.10;99.90;;;;;;5051418;28;20388;-50
2021/06/08 07:22:24;;;;;;;35.13;24.05;;;20.10;99.90;;;;;;5050266;28;20409;-50
2021/06/08 07:24:51;;;;;;;32.37;23.50;;;20.10;99.90;;;;;;5050759;28;20393;-49
2021/06/08 07:27:17;;;;;;;33.20;24.70;;;20.20;99.90;;;;;;5050382;28;20380;-50
2021/06/08 07:29:44;;;;;;;37.15;25.48;;;20.30;99.90;;;;;;5050864;28;20373;-50
2021/06/08 07:32:39;;;;;;;33.95;24.73;;;20.40;99.90;;;;;;5049958;28;20518;-49
2021/06/08 07:35:35;;;;;;;33.95;24.40;;;20.30;99.90;;;;;;5047486;28;20867;-50
2021/06/08 07:38:08;;;;;;;33.25;24.20;;;20.40;99.90;;;;;;5050019;28;20476;-49
2021/06/08 07:40:48;;;;;;;32.80;24.08;;;20.30;99.90;;;;;;5055458;28;20393;-50
2021/06/08 07:43:19;;;;;;;31.30;23.90;;;20.30;99.90;;;;;;5062265;28;20848;-51
2021/06/08 07:45:49;;;;;;;36.75;25.55;;;20.10;99.90;;;;;;5058273;28;20386;-50
2021/06/08 07:48:17;;;;;;;37.90;25.50;;;19.90;99.90;;;;;;5049861;28;20384;-50
2021/06/08 07:50:49;;;;;;;37.58;24.98;;;20.00;99.90;;;;;;5050551;28;20393;-49
2021/06/08 07:53:18;;;;;;;35.60;26.25;;;19.80;99.90;;;;;;5049995;28;20381;-50
2021/06/08 07:55:45;;;;;;;34.45;25.60;;;19.80;99.90;;;;;;5050849;28;20388;-50
2021/06/08 07:58:11;;;;;;;36.47;24.65;;;20.00;99.90;;;;;;5049438;28;20452;-51
2021/06/08 08:00:38;;;;;;;33.53;25.77;;;20.20;99.90;;;;;;5056390;28;20388;-52
2021/06/08 08:05:49;;;;;;;35.97;26.15;;;20.40;99.90;;;;;;5061129;28;20402;-50
2021/06/08 08:08:18;;;;;;;35.08;25.80;;;20.10;99.90;;;;;;5057559;28;20381;-50
2021/06/08 08:10:45;;;;;;;36.22;25.92;;;20.00;99.90;;;;;;5066276;28;20372;-49
2021/06/08 08:13:12;;;;;;;33.90;23.77;;;20.10;99.90;;;;;;5069388;28;20415;-50
2021/06/08 08:15:39;;;;;;;34.80;25.13;;;20.10;99.90;;;;;;5069658;28;20410;-50
2021/06/08 08:18:05;;;;;;;36.15;25.10;;;20.40;99.90;;;;;;5069553;28;20377;-50
2021/06/08 08:20:49;;;;;;;35.38;26.20;;;20.70;99.90;;;;;;5070075;28;20390;-50
2021/06/08 08:23:15;;;;;;;33.70;24.88;;;21.00;99.90;;;;;;5068963;28;20764;-50
2021/06/08 08:25:42;;;;;;;34.80;25.45;;;20.80;99.90;;;;;;5070110;28;20476;-50
2021/06/08 08:28:08;;;;;;;33.58;25.05;;;20.80;99.90;;;;;;5069286;28;20419;-55
2021/06/08 08:30:34;;;;;;;33.55;25.90;;;21.00;99.90;;;;;;5069845;28;20376;-50
2021/06/08 08:33:03;;;;;;;34.78;25.40;;;21.10;99.90;;;;;;5057146;28;20408;-50
2021/06/08 08:35:30;;;;;;;32.33;25.52;;;21.30;99.90;;;;;;5059864;28;20385;-50
2021/06/08 08:37:56;;;;;;;33.20;24.75;;;21.30;99.90;;;;;;5049141;28;20381;-50
2021/06/08 08:40:22;;;;;;;32.00;24.47;;;21.10;99.90;;;;;;5048043;28;20941;-50
2021/06/08 08:42:49;;;;;;;35.65;25.63;;;20.90;99.90;;;;;;5049954;28;20409;-49
2021/06/08 08:45:16;;;;;;;33.75;25.30;;;20.90;99.90;;;;;;5048609;28;20374;-51
2021/06/08 08:47:45;;;;;;;36.50;26.10;;;21.30;99.90;;;;;;5049323;28;20377;-50
2021/06/08 08:50:21;;;;;;;35.20;26.30;;;21.70;99.90;;;;;;5047972;28;20374;-50
2021/06/08 08:52:55;;;;;;;33.08;24.92;;;21.80;99.90;;;;;;5049846;28;20378;-49
2021/06/08 08:55:23;;;;;;;33.20;25.63;;;21.80;99.90;;;;;;5048100;28;20836;-51
2021/06/08 08:57:50;;;;;;;31.42;24.70;;;21.40;99.90;;;;;;5048326;28;20810;-50
2021/06/08 09:00:16;;;;;;;34.40;26.03;;;21.30;99.90;;;;;;5052163;28;20474;-49
2021/06/08 09:02:43;;;;;;;34.83;25.58;;;21.40;99.90;;;;;;5068886;28;20428;-51
2021/06/08 09:05:10;;;;;;;33.93;25.17;;;21.50;99.90;;;;;;5068696;28;20391;-54
2021/06/08 09:07:36;;;;;;;35.63;26.52;;;21.30;99.90;;;;;;5069689;28;20379;-51
2021/06/08 09:10:04;;;;;;;33.50;24.90;;;21.10;99.90;;;;;;5069129;28;20927;-49
2021/06/08 09:12:29;;;;;;;39.10;28.13;;;20.90;99.90;;;;;;5068474;28;20388;-50
2021/06/08 09:14:55;;;;;;;36.67;27.33;;;21.00;99.90;;;;;;5068854;28;20865;-50
2021/06/08 09:17:21;;;;;;;36.67;27.93;;;21.10;99.90;;;;;;5069120;28;20387;-50
2021/06/08 09:19:47;;;;;;;36.30;27.13;;;21.10;99.90;;;;;;5069093;28;20375;-51
2021/06/08 09:22:15;;;;;;;34.23;25.90;;;21.30;99.90;;;;;;5068397;28;20379;-49
2021/06/08 09:24:44;;;;;;;34.15;26.20;;;21.60;99.90;;;;;;5069110;28;20486;-50
2021/06/08 09:27:12;;;;;;;37.15;27.42;;;21.70;99.90;;;;;;5068402;28;20383;-51
2021/06/08 09:29:43;;;;;;;38.42;27.80;;;21.80;99.90;;;;;;5068638;28;20375;-50
2021/06/08 09:32:22;;;;;;;37.25;27.50;;;21.60;99.90;;;;;;5068772;28;20857;-54
2021/06/08 09:34:50;;;;;;;36.20;27.65;;;21.40;99.90;;;;;;5068210;28;20398;-49
2021/06/08 09:37:32;;;;;;;38.08;29.40;;;21.30;99.90;;;;;;5068549;28;20446;-49
2021/06/08 09:39:58;;;;;;;34.92;27.42;;;21.20;99.90;;;;;;5068661;28;20793;-49
2021/06/08 09:42:27;;;;;;;37.33;26.33;;;21.60;99.90;;;;;;5068439;28;20810;-49
2021/06/08 09:44:53;;;;;;;36.03;28.42;;;22.00;99.90;;;;;;5068652;28;20857;-50
2021/06/08 09:47:29;;;;;;;34.60;26.77;;;22.50;99.90;;;;;;5068214;28;20509;-49
2021/06/08 09:49:55;;;;;;;36.40;26.88;;;23.30;99.90;;;;;;5068596;28;20461;-50
2021/06/08 09:52:21;;;;;;;33.90;26.57;;;24.00;99.90;;;;;;5063501;28;20442;-49
2021/06/08 09:54:52;;;;;;;35.72;28.08;;;24.50;99.90;;;;;;5059444;28;20406;-50
2021/06/08 09:57:27;;;;;;;35.80;27.20;;;24.00;99.90;;;;;;5059481;28;20864;-50
2021/06/08 10:00:04;;;;;;;35.22;27.10;;;23.80;99.90;;;;;;5058603;28;20432;-50
2021/06/08 10:02:47;;;;;;;33.50;25.57;;;24.20;99.90;;;;;;5070783;28;20765;-49
2021/06/08 10:05:28;;;;;;;29.42;24.35;;;25.40;99.90;;;;;;5062894;28;20393;-50
2021/06/08 10:08:04;;;;;;;30.55;25.00;;;26.70;99.90;;;;;;5066328;28;20430;-50
2021/06/08 10:10:36;;;;;;;30.40;24.50;;;27.30;99.90;;;;;;5066705;28;20836;-49
2021/06/08 10:13:07;;;;;;;31.08;25.65;;;27.30;99.90;;;;;;5063151;28;20425;-50
2021/06/08 10:15:35;;;;;;;31.70;26.35;;;26.80;99.90;;;;;;5062600;28;20389;-50
2021/06/08 10:18:07;;;;;;;31.52;26.38;;;26.70;99.90;;;;;;5059787;28;20664;-49
2021/06/08 10:20:42;;;;;;;33.58;25.25;;;26.30;99.90;;;;;;5052201;28;20374;-50
2021/06/08 10:23:31;;;;;;;30.00;25.88;;;26.10;99.90;;;;;;5051720;28;20424;-55
2021/06/08 10:25:59;;;;;;;31.70;25.88;;;26.10;99.90;;;;;;5047053;28;20755;-50
2021/06/08 10:28:26;;;;;;;34.40;26.05;;;26.20;99.90;;;;;;5051161;28;20381;-49
2021/06/08 10:30:53;;;;;;;33.45;26.65;;;25.80;99.90;;;;;;5054448;28;20388;-50
2021/06/08 10:33:21;;;;;;;32.83;25.83;;;25.60;99.90;;;;;;5061276;28;20389;-49
2021/06/08 10:35:48;;;;;;;31.13;26.50;;;25.60;99.90;;;;;;5059396;28;20410;-49
2021/06/08 10:38:14;;;;;;;32.78;26.10;;;25.20;99.90;;;;;;5055714;28;20389;-49
2021/06/08 10:40:41;;;;;;;33.22;26.42;;;25.60;99.90;;;;;;5051867;28;20386;-50
2021/06/08 10:43:15;;;;;;;33.10;26.10;;;25.60;99.90;;;;;;5051520;28;20413;-54
2021/06/08 10:45:41;;;;;;;31.20;25.00;;;25.80;99.90;;;;;;5051756;28;20389;-49
2021/06/08 10:48:18;;;;;;;30.33;24.25;;;25.60;99.90;;;;;;5051629;28;20399;-55
2021/06/08 10:50:46;;;;;;;30.73;25.23;;;25.90;99.90;;;;;;5051492;28;20455;-49
2021/06/08 10:53:48;;;;;;;29.23;24.57;;;26.40;99.90;;;;;;5053260;28;20730;-49
2021/06/08 10:56:23;;;;;;;32.05;25.25;;;26.40;99.90;;;;;;5028619;28;20397;-50
2021/06/08 10:58:53;;;;;;;29.45;24.13;;;26.00;99.90;;;;;;5055197;28;20409;-50
2021/06/08 11:01:31;;;;;;;27.90;23.48;;;25.80;99.90;;;;;;5063975;28;20417;-52
2021/06/08 11:03:58;;;;;;;30.58;25.10;;;25.60;99.90;;;;;;5060774;28;20518;-50
2021/06/08 11:06:47;;;;;;;31.95;25.58;;;25.90;99.90;;;;;;5055021;28;20415;-52
2021/06/08 11:09:15;;;;;;;31.00;24.70;;;26.00;99.90;;;;;;5054938;28;20378;-49
2021/06/08 11:11:47;;;;;;;27.00;23.23;;;26.20;99.90;;;;;;5050655;28;20883;-50
2021/06/08 11:14:42;;;;;;;32.75;25.10;;;26.00;99.90;;;;;;5050538;28;20397;-50
2021/06/08 11:17:27;;;;;;;30.27;24.63;;;25.90;99.90;;;;;;5051465;28;20414;-54
2021/06/08 11:20:04;;;;;;;29.65;24.25;;;25.80;99.90;;;;;;5064332;28;20478;-50
2021/06/08 11:22:32;;;;;;;29.25;23.00;;;26.00;99.90;;;;;;5056115;28;20470;-49
2021/06/08 11:24:58;;;;;;;29.50;24.30;;;25.70;99.90;;;;;;5070604;28;20376;-50
2021/06/08 11:27:53;;;;;;;28.90;22.40;;;26.10;99.90;;;;;;5056847;28;20446;-49
2021/06/08 11:30:39;;;;;;;28.20;23.92;;;26.50;99.90;;;;;;5068441;28;20451;-50
2021/06/08 11:33:27;;;;;;;27.05;21.95;;;26.60;99.90;;;;;;5070726;28;20438;-50
2021/06/08 11:35:53;;;;;;;27.50;23.17;;;26.50;99.90;;;;;;5070454;28;20392;-49
2021/06/08 11:38:33;;;;;;;28.25;23.95;;;27.10;99.90;;;;;;5070273;28;20376;-51
2021/06/08 11:41:04;;;;;;;25.17;22.13;;;27.00;99.90;;;;;;5071111;28;20391;-50
2021/06/08 11:43:29;;;;;;;26.90;22.30;;;26.80;99.90;;;;;;5070565;28;20865;-50
2021/06/08 11:46:11;;;;;;;27.73;22.20;;;26.20;99.90;;;;;;5069886;28;20411;-50
2021/06/08 11:48:48;;;;;;;28.23;22.37;;;26.30;99.90;;;;;;5070880;28;20372;-49
2021/06/08 11:51:20;;;;;;;28.25;22.60;;;25.90;99.90;;;;;;5069878;28;20841;-50
2021/06/08 11:54:02;;;;;;;25.92;22.00;;;26.00;99.90;;;;;;5070512;28;20768;-50
2021/06/08 11:56:45;;;;;;;27.15;21.00;;;26.80;99.90;;;;;;5069431;28;20379;-51
2021/06/08 11:59:12;;;;;;;25.30;20.70;;;27.20;99.90;;;;;;5069835;28;20392;-50
2021/06/08 12:01:39;;;;;;;25.30;21.55;;;27.00;99.90;;;;;;5070174;28;20400;-50
2021/06/08 12:04:05;;;;;;;25.77;20.60;;;26.40;99.90;;;;;;5070680;28;20975;-50
2021/06/08 12:07:06;;;;;;;26.25;21.60;;;26.50;99.90;;;;;;5070202;28;20471;-50
2021/06/08 12:09:45;;;;;;;24.95;20.90;;;26.50;99.90;;;;;;5069761;28;20410;-50
2021/06/08 12:12:13;;;;;;;26.65;20.40;;;26.50;99.90;;;;;;5069514;28;20763;-54
2021/06/08 12:14:55;;;;;;;23.98;20.80;;;26.60;99.90;;;;;;5069980;28;20434;-50
2021/06/08 12:17:20;;;;;;;24.50;20.67;;;26.50;99.90;;;;;;5069423;28;20864;-50
2021/06/08 12:19:46;;;;;;;24.48;20.40;;;26.50;99.90;;;;;;5070300;28;20543;-49
2021/06/08 12:22:27;;;;;;;27.80;22.47;;;26.70;99.90;;;;;;5069221;28;20727;-54
2021/06/08 12:25:02;;;;;;;29.58;23.42;;;26.60;99.90;;;;;;5069184;28;20383;-51
2021/06/08 12:27:42;;;;;;;28.02;22.35;;;26.30;99.90;;;;;;5069393;28;20376;-49
2021/06/08 12:30:11;;;;;;;27.37;23.43;;;25.90;99.90;;;;;;5070070;28;20471;-49
2021/06/08 12:32:38;;;;;;;27.15;21.30;;;26.30;99.90;;;;;;5070281;28;20457;-50
2021/06/08 12:35:07;;;;;;;26.77;20.98;;;26.20;99.90;;;;;;5069836;28;20399;-50
2021/06/08 12:37:32;;;;;;;24.65;20.15;;;26.30;99.90;;;;;;5066823;28;21130;-50
2021/06/08 12:39:59;;;;;;;25.20;20.75;;;26.40;99.90;;;;;;5068993;28;20411;-51
2021/06/08 12:42:25;;;;;;;24.10;18.75;;;26.70;99.90;;;;;;5068339;28;20387;-50
2021/06/08 12:44:52;;;;;;;21.97;19.00;;;26.70;99.90;;;;;;5069026;28;20384;-50